Terminal Aerodrome Forecast
Issued by NWS

Home | Current Version | Previous Version | Text Only | Print | Product List | Glossary Off
Versions: 1 2 3 4 5 6 7 8 9 10 11 12 13 14 15 16 17 18 19 20 21 22 23 24 25 26 27 28 29 30 31 32 33 34 35 36 37 38 39

000
FTUS43 KGRB 291138
TAFRHI
TAF
KRHI 291138Z 2912/3012 VRB03KT 3SM BR SCT006 BKN045
      TEMPO 2912/2913 1SM BR BKN006
     FM291500 19003KT 5SM BR BKN015
     FM291800 17005KT P6SM FEW015 BKN050
     FM292100 19004KT P6SM SCT050
     FM300300 VRB03KT 3SM BR SKC
     FM300800 VRB03KT 1/2SM FG BKN002=

USA.gov is the U.S. government's official web portal to all federal, state and local government web resources and services.